Nearby METAR Reports

 

KSJC - San Jose, California, USA
Distance from station: NE 9mi, 14km
Updated: Sun, 21-Jul-2019 6:53pm PDT
Mostly cloudy
Mostly cloudy
 Wind from NNW
Wind: NNW 9 mph , 15 km/h
Temperature: 77°F , 25°C
Dew Point: 59°F , 15°C
Humidity: 54%
Barometer: 29.88 inHg , 1011.9 hPa
Clouds: Mostly cloudy
Visibility: 10 miles , 16 km
Cloud details: Few Clouds 5500 ft
Partly cloudy 8500 ft
Mostly cloudy 12000 ft
2019/07/22 01:53 KSJC 220153Z 33008KT 10SM FEW055 SCT085 BKN120 25/15 A2988 RMK AO2 SLP117 T02500150 $
KNUQ - Moffett Nas/Mtn, California, USA
Distance from station: N 9mi, 14km
Updated: Sun, 21-Jul-2019 7:56pm PDT
Clear
Clear
 Wind from NW
Wind: NW 6 mph , 9 km/h
Temperature: 72°F , 22°C
Dew Point: 59°F , 15°C
Humidity: 65%
Barometer: 29.90 inHg , 1012.5 hPa
Clouds: Clear
Visibility: 10 miles , 16 km
2019/07/22 02:56 KNUQ 220256Z 32005KT 10SM CLR 22/15 A2990 RMK AO2 SLP126 T02170150 55001 $
 
KPAO - Palo Alto, California, USA
Distance from station: NNW 14mi, 23km
Updated: Sun, 21-Jul-2019 7:47pm PDT
Partly cloudy
Partly cloudy
 Wind from N
Wind: N 12 mph , 19 km/h
Temperature: 68°F , 20°C
Dew Point: 61°F , 16°C
Humidity: 78%
Barometer: 29.90 inHg , 1012.5 hPa
Clouds: Partly cloudy
Visibility: 10 miles , 16 km
Cloud details: Partly cloudy 15000 ft
2019/07/22 02:47 KPAO 220247Z 35010KT 10SM SCT150 20/16 A2990
KRHV - San Jose/Reid, California, USA
Distance from station: ENE 12mi, 19km
Updated: Sun, 21-Jul-2019 7:47pm PDT
Mostly cloudy
Mostly cloudy
 Wind from NNW
Wind: NNW 7 mph , 11 km/h
Temperature: 77°F , 25°C
Dew Point: 59°F , 15°C
Humidity: 54%
Barometer: 29.89 inHg , 1012.2 hPa
Clouds: Mostly cloudy
Visibility: 10 miles , 16 km
Cloud details: Mostly cloudy 15000 ft
2019/07/22 02:47 KRHV 220247Z 33006KT 10SM BKN150 25/15 A2989
 
KOAK - Oakland, California, USA
Distance from station: NNW 31mi, 50km
Updated: Sun, 21-Jul-2019 7:53pm PDT
Partly cloudy
Partly cloudy
 Wind from WNW
Wind: WNW 14 mph , 22 km/h
Temperature: 64°F , 18°C
Dew Point: 55°F , 13°C
Humidity: 73%
Barometer: 29.91 inHg , 1012.9 hPa
Clouds: Partly cloudy
Visibility: 10 miles , 16 km
Cloud details: Few Clouds 1000 ft
Few Clouds 18000 ft
Partly cloudy 25000 ft
2019/07/22 02:53 KOAK 220253Z 30012KT 10SM FEW010 FEW180 SCT250 18/13 A2991 RMK AO2 SLP126 T01830128 55002 $
KSQL - San Carlos Airpo, California, USA
Distance from station: NW 21mi, 34km
Updated: Sun, 21-Jul-2019 6:52pm PDT
Mostly cloudy
Mostly cloudy
 Wind from NNW
Wind: NNW 8 mph , 13 km/h
Temperature: 73°F , 23°C
Dew Point: 57°F , 14°C
Humidity: 57%
Barometer: 29.89 inHg , 1012.2 hPa
Clouds: Mostly cloudy
Visibility: 10 miles , 16 km
Cloud details: Partly cloudy 4500 ft
Mostly cloudy 20000 ft
2019/07/22 01:52 KSQL 220152Z 33007KT 10SM SCT045 BKN200 23/14 A2989
 
KSFO - San Francisco, California, USA
Distance from station: NW 30mi, 49km
Updated: Sun, 21-Jul-2019 7:56pm PDT
Partly cloudy
Partly cloudy
 Wind from WNW
Wind: WNW 21 mph , 33 km/h
Temperature: 61°F , 16°C
Dew Point: 54°F , 12°C
Humidity: 77%
Barometer: 29.89 inHg , 1012.2 hPa
Clouds: Partly cloudy
Visibility: 10 miles , 16 km
Cloud details: Few Clouds 400 ft
Partly cloudy 18000 ft
2019/07/22 02:56 KSFO 220256Z 29018KT 10SM FEW004 SCT180 16/12 A2989 RMK AO2 SLP121 T01610117 55004
KE16 - San Martin, California, USA
Distance from station: ESE 27mi, 43km
Updated: Thu, 18-Jul-2019 7:15pm PDT
NOT Current
Clear
Clear
 Wind from SE
Wind: SE 15 mph , 24 km/h
Temperature: 68°F , 20°C
Dew Point: 55°F , 13°C
Humidity: 64%
Barometer: 29.90 inHg , 1012.5 hPa
Clouds: Clear
Visibility: 10 miles , 16 km
2019/07/19 02:15 KE16 190215Z AUTO 13013KT 10SM CLR 20/13 A2990 RMK AO2 PWINO PNO
 
KWVI - Watsonville, California, USA
Distance from station: SSE 27mi, 44km
Updated: Sun, 21-Jul-2019 7:53pm PDT
Clear
Clear
 Wind from SW
Wind: SW 6 mph , 9 km/h
Temperature: 61°F , 16°C
Dew Point: 54°F , 12°C
Humidity: 77%
Barometer: 29.94 inHg , 1013.9 hPa
Clouds: Clear
Visibility: 10 miles , 16 km
2019/07/22 02:53 KWVI 220253Z AUTO 23005KT 10SM CLR 16/12 A2994 RMK AO2 SLP137 T01560122 50001
KHAF - Half Moon Bay, California, USA
Distance from station: WNW 31mi, 50km
Updated: Sun, 21-Jul-2019 7:55pm PDT
Overcast
Overcast
 Wind from SSW
Wind: SSW 5 mph , 7 km/h
Temperature: 57°F , 14°C
Dew Point: 54°F , 12°C
Humidity: 88%
Barometer: 29.94 inHg , 1013.9 hPa
Clouds: Overcast
Visibility: 10 miles , 16 km
Cloud details: Overcast 600 ft
2019/07/22 02:55 KHAF 220255Z AUTO 21004KT 10SM OVC006 14/12 A2994 RMK AO2
 
KHWD - Hayward, California, USA
Distance from station: N 28mi, 44km
Updated: Sun, 21-Jul-2019 7:54pm PDT
Clear
Clear
 Wind from WNW
Wind: WNW 8 mph , 13 km/h
Temperature: 68°F , 20°C
Dew Point: 57°F , 14°C
Humidity: 69%
Barometer: 29.89 inHg , 1012.2 hPa
Clouds: Clear
Visibility: 10 miles , 16 km
2019/07/22 02:54 KHWD 220254Z 30007KT 10SM CLR 20/14 A2989 RMK AO2 SLP132 T02000139 55001
KLVK - Livermore, California, USA
Distance from station: NNE 31mi, 51km
Updated: Sun, 21-Jul-2019 7:53pm PDT
Clear
Clear
 Wind from WNW
Wind: WNW 14 mph , 22 km/h
Temperature: 81°F , 27°C
Dew Point: 46°F , 8°C
Humidity: 30%
Barometer: 29.87 inHg , 1011.5 hPa
Clouds: Clear
Visibility: 10 miles , 16 km
2019/07/22 02:53 KLVK 220253Z 29012KT 10SM CLR 27/08 A2987 RMK AO2 SLP112 T02670078 53003